Home > Products > Valid Products > MTR

000
SAUS46 KMTR 251458
MTRMHS
METAR KMHS 251456Z AUTO 00000KT 10SM CLR 17/08 A3009 RMK AO2 SLP177
T01720078 50004





000
SAUS46 KMTR 251358
MTRMHS
METAR KMHS 251356Z AUTO 30004KT 10SM CLR 13/07 A3009 RMK AO2 SLP179
T01280067





000
SAUS46 KMTR 251258
MTRMHS
METAR KMHS 251256Z AUTO 00000KT 10SM CLR 11/06 A3008 RMK AO2 SLP178
T01060061





000
SAUS46 KMTR 251159
MTRMHS
METAR KMHS 251156Z AUTO 00000KT 10SM CLR 13/06 A3007 RMK AO2 SLP174
T01280061 10183 20128 55000





000
SAUS46 KMTR 251059
MTRMHS
METAR KMHS 251056Z AUTO 00000KT 10SM CLR 14/06 A3007 RMK AO2 SLP171
T01390056





000
SAUS46 KMTR 250957
MTRMHS
METAR KMHS 250956Z AUTO 00000KT 10SM CLR 14/06 A3007 RMK AO2 SLP173
T01390061





000
SAUS46 KMTR 250858
MTRMHS
METAR KMHS 250856Z AUTO 00000KT 10SM CLR 14/06 A3008 RMK AO2 SLP174
T01440056 58003





000
SAUS46 KMTR 250758
MTRMHS
METAR KMHS 250756Z AUTO 33004KT 10SM CLR 16/05 A3008 RMK AO2 SLP178
T01610050 402670083





000
SAUS46 KMTR 250659
MTRMHS
METAR KMHS 250656Z AUTO VRB03KT 10SM CLR 18/04 A3008 RMK AO2 SLP176
T01780044





000
SAUS46 KMTR 250558
MTRMHS
METAR KMHS 250556Z AUTO VRB05KT 10SM CLR 18/03 A3009 RMK AO2 SLP178
T01830033 10261 20183 51012





000
SAUS46 KMTR 250459
MTRMHS
METAR KMHS 250456Z AUTO VRB05KT 10SM CLR 19/02 A3008 RMK AO2 SLP179
T01890022





000
SAUS46 KMTR 250359
MTRMHS
METAR KMHS 250356Z AUTO VRB06KT 10SM CLR 21/02 A3006 RMK AO2 SLP175
T02060022





000
SAUS46 KMTR 250259
MTRMHS
METAR KMHS 250256Z AUTO VRB05KT 10SM CLR 23/01 A3005 RMK AO2 SLP169
T02280011 55004





000
SAUS46 KMTR 250159
MTRMHS
METAR KMHS 250156Z AUTO VRB05KT 10SM CLR 24/01 A3004 RMK AO2 SLP168
T02440006





000
SAUS46 KMTR 242258
MTRMHS
METAR KMHS 242256Z AUTO VRB06KT 10SM CLR 26/03 A3009 RMK AO2 SLP182
T02610028





000
SAUS46 KMTR 242059
MTRMHS
METAR KMHS 242056Z AUTO VRB03KT 10SM CLR 24/04 A3015 RMK AO2 SLP201
T02390039 58021





000
SAUS46 KMTR 241957
MTRMHS
METAR KMHS 241956Z AUTO 29007KT 10SM CLR 22/04 A3017 RMK AO2 SLP210
T02170044





000
SAUS46 KMTR 241858
MTRMHS
METAR KMHS 241856Z AUTO VRB03KT 10SM CLR 21/04 A3020 RMK AO2 SLP220
T02110044





000
SAUS46 KMTR 241759
MTRMHS
METAR KMHS 241756Z AUTO 10SM CLR 19/05 A3021 RMK AO2 SLP227
T01890050 10189 20083 58008





000
SAUS46 KMTR 240657
MTRMHS
METAR KMHS 240656Z AUTO VRB03KT 10SM CLR 14/06 A3018 RMK AO2 SLP213
T01390061





000
SAUS46 KMTR 240557
MTRMHS
METAR KMHS 240556Z AUTO VRB05KT 10SM CLR 16/06 A3017 RMK AO2 SLP209
T01560056 10250 20156 51019





000
SAUS46 KMTR 240459
MTRMHS
METAR KMHS 240456Z AUTO VRB04KT 10SM CLR 17/06 A3015 RMK AO2 SLP204
T01720056





000
SAUS46 KMTR 240157
MTRMHS
METAR KMHS 240156Z AUTO 00000KT 10SM FEW085 22/11 A3010 RMK AO2
SLP184 T02170106





000
SAUS46 KMTR 240057
MTRMHS
METAR KMHS 240056Z AUTO 00000KT 10SM FEW095 24/09 A3010 RMK AO2
SLP181 T02390094





000
SAUS46 KMTR 232358
MTRMHS
METAR KMHS 232356Z AUTO 00000KT 10SM SCT090 23/09 A3011 RMK AO2
SLP186 T02330094 10267 20194 56008





000
SAUS46 KMTR 230957
MTRMHS
METAR KMHS 230956Z AUTO 00000KT 10SM FEW060 SCT070 16/08 A3012 RMK
AO2 SLP186 T01610078





000
SAUS46 KMTR 230857
MTRMHS
METAR KMHS 230856Z AUTO 00000KT 10SM CLR 17/11 A3012 RMK AO2 SLP185
T01720106 51008





000
SAUS46 KMTR 230757
MTRMHS
METAR KMHS 230756Z AUTO 00000KT 10SM CLR 18/11 A3011 RMK AO2 SLP180
T01780111 402780150





000
SAUS46 KMTR 230657
MTRMHS
METAR KMHS 230656Z AUTO 00000KT 10SM CLR 19/11 A3011 RMK AO2 SLP177
T01890106





000
SAUS46 KMTR 230557
MTRMHS
METAR KMHS 230556Z AUTO 00000KT 10SM CLR 20/09 A3009 RMK AO2 SLP174
T02000089 10244 20194 53005





000
SAUS46 KMTR 230457
MTRMHS
METAR KMHS 230456Z AUTO 00000KT 10SM CLR 20/09 A3009 RMK AO2 SLP174
T02000089





000
SAUS46 KMTR 230357
MTRMHS
METAR KMHS 230356Z AUTO 00000KT 10SM CLR 21/09 A3007 RMK AO2 SLP170
T02060089





000
SAUS46 KMTR 230257
MTRMHS
METAR KMHS 230256Z AUTO 00000KT 10SM CLR 22/10 A3008 RMK AO2 SLP172
T02170100 55005





000
SAUS46 KMTR 230157
MTRMHS
METAR KMHS 230156Z AUTO 14003KT 10SM CLR 23/09 A3007 RMK AO2 SLP173
T02280089





000
SAUS46 KMTR 230058
MTRMHS
METAR KMHS 230056Z AUTO 00000KT 10SM FEW120 24/07 A3009 RMK AO2
SLP176 T02390072





000
SAUS46 KMTR 222257
MTRMHS
METAR KMHS 222256Z AUTO 00000KT 10SM FEW110 28/08 A3008 RMK AO2
SLP171 T02780083





000
SAUS46 KMTR 222157
MTRMHS
METAR KMHS 222156Z AUTO 00000KT 10SM BKN100 26/08 A3011 RMK AO2
SLP183 T02560083





000
SAUS46 KMTR 222057
MTRMHS
METAR KMHS 222056Z AUTO 00000KT 10SM SCT120 26/10 A3012 RMK AO2
SLP185 T02560100 58007





000
SAUS46 KMTR 221857
MTRMHS
METAR KMHS 221856Z AUTO VRB03KT 10SM CLR 26/10 A3014 RMK AO2 SLP191
T02610100





000
SAUS46 KMTR 221757
MTRMHS
METAR KMHS 221756Z AUTO 00000KT 10SM CLR 24/11 A3014 RMK AO2 SLP192
T02440106 10244 20161 51003





000
SAUS46 KMTR 221658
MTRMHS
METAR KMHS 221656Z AUTO 00000KT 10SM CLR 23/12 A3013 RMK AO2 SLP190
T02280117





    US Dept of Commerce
    National Oceanic and Atmospheric Administration
    National Weather Service
    1325 East West Highway
    Silver Spring, MD 20910
    Page Author: NWS Internet Services Team
Disclaimer
Information Quality
Credits
Glossary
Privacy Policy
Freedom of Information Act (FOIA)
About Us
Career Opportunities